createdAt,value
2022-10-29T00:01:32.318Z,19.00
2022-10-29T00:06:35.373Z,18.60
2022-10-29T00:11:39.746Z,18.80
2022-10-29T00:16:42.756Z,18.80
2022-10-29T00:21:45.733Z,18.80
2022-10-29T00:26:50.448Z,18.90
2022-10-29T00:31:53.806Z,18.60
2022-10-29T00:36:56.796Z,18.70
2022-10-29T00:42:01.132Z,18.60
2022-10-29T00:47:13.696Z,18.70
2022-10-29T00:52:19.188Z,18.40
2022-10-29T00:57:28.186Z,18.50
2022-10-29T01:02:34.422Z,18.50
2022-10-29T01:07:37.435Z,18.40
2022-10-29T01:12:58.167Z,18.40
2022-10-29T01:18:12.575Z,18.40
2022-10-29T01:23:41.177Z,18.30
2022-10-29T01:29:06.162Z,18.30
2022-10-29T01:34:17.020Z,18.30
2022-10-29T01:39:27.380Z,18.40
2022-10-29T01:44:36.312Z,18.30
2022-10-29T01:49:43.436Z,18.30
2022-10-29T01:54:47.678Z,18.20
2022-10-29T01:59:56.118Z,18.30
2022-10-29T02:05:13.094Z,18.00
2022-10-29T02:10:27.572Z,17.90
2022-10-29T02:15:35.358Z,18.00
2022-10-29T02:20:44.846Z,18.00
2022-10-29T02:25:47.815Z,18.00
2022-10-29T02:30:51.359Z,17.80
2022-10-29T02:35:55.618Z,17.90
2022-10-29T02:40:58.589Z,17.90
2022-10-29T02:46:13.129Z,17.70
2022-10-29T02:51:18.670Z,17.40
2022-10-29T02:56:21.916Z,17.20
2022-10-29T03:01:25.152Z,17.50
2022-10-29T03:06:35.476Z,17.70
2022-10-29T03:11:38.412Z,17.70
2022-10-29T03:16:41.492Z,17.60
2022-10-29T03:21:45.933Z,17.50
2022-10-29T03:26:48.921Z,17.40
2022-10-29T03:31:51.825Z,17.40
2022-10-29T03:36:56.303Z,17.50
2022-10-29T03:41:59.259Z,17.50
2022-10-29T03:47:02.201Z,17.30
2022-10-29T03:52:06.711Z,17.40
2022-10-29T03:57:09.820Z,17.00
2022-10-29T04:02:13.127Z,17.20
2022-10-29T04:07:17.500Z,17.20
2022-10-29T04:12:20.440Z,17.10
2022-10-29T04:17:23.350Z,16.70
2022-10-29T04:33:13.658Z,16.70
2022-10-29T04:38:17.959Z,16.60
2022-10-29T04:43:21.430Z,16.80
2022-10-29T04:48:26.120Z,16.80
2022-10-29T04:53:30.654Z,16.70
2022-10-29T04:58:33.592Z,16.40
2022-10-29T05:03:36.815Z,16.30
2022-10-29T05:08:41.181Z,16.40
2022-10-29T05:13:45.474Z,16.50
2022-10-29T05:18:49.245Z,16.50
2022-10-29T05:23:56.777Z,16.30
2022-10-29T05:28:59.745Z,16.40
2022-10-29T05:34:02.657Z,16.30
2022-10-29T05:39:07.079Z,16.40
2022-10-29T05:44:10.122Z,16.40
2022-10-29T05:49:13.672Z,16.40
2022-10-29T05:54:17.977Z,16.50
2022-10-29T05:59:36.283Z,16.40
2022-10-29T06:04:39.275Z,16.40
2022-10-29T06:09:43.620Z,16.50
2022-10-29T06:14:46.582Z,16.40
2022-10-29T06:19:49.559Z,16.20
2022-10-29T06:24:54.172Z,15.90
2022-10-29T06:29:57.153Z,16.10
2022-10-29T06:35:00.119Z,16.10
2022-10-29T06:40:07.895Z,16.00
2022-10-29T06:45:11.474Z,16.10
2022-10-29T06:50:14.862Z,16.20
2022-10-29T06:55:19.268Z,16.30
2022-10-29T07:00:22.427Z,16.40
2022-10-29T07:05:25.840Z,16.40
2022-10-29T07:10:31.444Z,16.30
2022-10-29T07:15:34.431Z,16.40
2022-10-29T07:20:38.973Z,16.40
2022-10-29T07:25:43.445Z,16.50
2022-10-29T07:30:46.612Z,16.60
2022-10-29T07:35:49.551Z,16.60
2022-10-29T07:40:54.830Z,16.50
2022-10-29T07:45:57.794Z,16.50
2022-10-29T07:51:01.275Z,16.60
2022-10-29T07:56:06.077Z,16.70
2022-10-29T08:01:09.037Z,16.80
2022-10-29T08:06:12.035Z,16.90
2022-10-29T08:11:16.312Z,17.10
2022-10-29T08:16:19.258Z,17.40
2022-10-29T08:21:22.382Z,17.60
2022-10-29T08:26:26.770Z,17.80
2022-10-29T08:31:29.760Z,17.80
2022-10-29T08:36:32.771Z,18.00
2022-10-29T08:41:47.587Z,18.20
2022-10-29T08:46:53.948Z,18.20
2022-10-29T08:52:02.336Z,18.20
2022-10-29T08:57:14.712Z,18.30
2022-10-29T09:02:19.213Z,18.40
2022-10-29T09:07:37.955Z,18.60
2022-10-29T09:12:57.877Z,18.60
2022-10-29T09:18:13.055Z,18.70
2022-10-29T09:23:23.328Z,18.80
2022-10-29T09:28:37.891Z,18.90
2022-10-29T09:33:41.864Z,18.90
2022-10-29T09:38:54.486Z,19.00
2022-10-29T09:44:05.220Z,19.10
2022-10-29T09:49:32.317Z,19.20
2022-10-29T09:54:38.128Z,19.50
2022-10-29T09:59:47.955Z,19.40
2022-10-29T10:04:57.734Z,19.40
2022-10-29T10:10:02.667Z,19.50
2022-10-29T10:15:18.292Z,19.60
2022-10-29T10:20:29.287Z,19.70
2022-10-29T10:25:34.572Z,19.70
2022-10-29T10:30:39.267Z,19.80
2022-10-29T10:35:43.008Z,20.00
2022-10-29T10:40:55.113Z,20.20
2022-10-29T10:46:07.711Z,20.20
2022-10-29T10:51:15.835Z,20.20
2022-10-29T10:56:21.778Z,20.40
2022-10-29T11:01:32.211Z,20.60
2022-10-29T11:06:42.708Z,20.60
2022-10-29T11:11:52.716Z,20.60
2022-10-29T11:17:04.577Z,20.80
2022-10-29T11:22:17.559Z,21.00
2022-10-29T11:27:32.629Z,21.20
2022-10-29T11:32:57.538Z,21.00
2022-10-29T11:38:07.819Z,21.20
2022-10-29T11:43:13.147Z,21.10
2022-10-29T11:53:45.667Z,21.10
2022-10-29T11:58:56.671Z,21.30
2022-10-29T12:04:28.055Z,21.50
2022-10-29T12:09:48.836Z,21.40
2022-10-29T12:14:57.511Z,21.50
2022-10-29T12:20:07.431Z,21.60
2022-10-29T12:25:22.561Z,21.50
2022-10-29T12:30:25.687Z,21.50
2022-10-29T12:35:41.692Z,21.60
2022-10-29T12:40:47.083Z,21.70
2022-10-29T12:46:19.106Z,21.70
2022-10-29T12:51:34.850Z,21.90
2022-10-29T12:56:38.445Z,21.90
2022-10-29T13:07:25.593Z,22.10
2022-10-29T13:13:01.721Z,22.20
2022-10-29T13:18:09.200Z,22.20
2022-10-29T13:23:37.637Z,22.20
2022-10-29T13:28:50.635Z,22.30
2022-10-29T13:33:54.849Z,22.20
2022-10-29T13:39:07.294Z,22.30
2022-10-29T13:44:13.544Z,22.30
2022-10-29T13:49:20.685Z,22.20
2022-10-29T13:54:31.584Z,22.30
2022-10-29T13:59:42.589Z,22.40
2022-10-29T14:04:50.267Z,22.30
2022-10-29T14:09:57.056Z,22.50
2022-10-29T14:15:05.680Z,22.40
2022-10-29T14:20:23.373Z,22.50
2022-10-29T14:25:36.822Z,22.50
2022-10-29T14:30:40.024Z,22.60
2022-10-29T14:35:46.537Z,22.70
2022-10-29T14:40:51.173Z,22.70
2022-10-29T14:45:56.879Z,22.80
2022-10-29T14:50:59.889Z,22.90
2022-10-29T14:56:09.332Z,22.80
2022-10-29T15:01:15.828Z,22.80
2022-10-29T15:06:20.986Z,22.60
2022-10-29T15:11:36.823Z,22.70
2022-10-29T15:16:42.357Z,22.50
2022-10-29T15:21:46.320Z,22.60
2022-10-29T15:26:53.589Z,22.50
2022-10-29T15:31:58.432Z,22.40
2022-10-29T15:37:16.151Z,22.30
2022-10-29T15:42:23.674Z,22.30
2022-10-29T15:47:29.751Z,22.20
2022-10-29T15:52:34.499Z,22.10
2022-10-29T15:57:42.286Z,22.10
2022-10-29T16:02:47.427Z,22.00
2022-10-29T16:07:50.487Z,22.00
2022-10-29T16:12:55.462Z,21.80
2022-10-29T16:17:59.028Z,21.80
2022-10-29T16:23:02.193Z,21.70
2022-10-29T16:28:08.003Z,21.60
2022-10-29T16:33:12.156Z,21.60
2022-10-29T16:38:16.647Z,21.60
2022-10-29T16:43:20.858Z,21.50
2022-10-29T16:48:23.816Z,21.50
2022-10-29T16:53:26.730Z,21.40
2022-10-29T16:58:30.960Z,21.30
2022-10-29T17:03:35.277Z,21.20
2022-10-29T17:08:39.199Z,21.20
2022-10-29T17:13:43.460Z,21.10
2022-10-29T17:18:50.660Z,20.90
2022-10-29T17:23:53.621Z,21.00
2022-10-29T17:28:57.855Z,20.90
2022-10-29T17:34:00.801Z,20.80
2022-10-29T17:39:04.360Z,20.80
2022-10-29T17:44:08.583Z,20.80
2022-10-29T17:49:11.592Z,20.80
2022-10-29T17:54:14.941Z,20.70
2022-10-29T17:59:19.276Z,20.70
2022-10-29T18:04:22.191Z,20.60
2022-10-29T18:09:25.215Z,20.40
2022-10-29T18:14:29.548Z,20.50
2022-10-29T18:19:32.472Z,20.70
2022-10-29T18:24:35.373Z,20.60
2022-10-29T18:29:39.638Z,20.50
2022-10-29T18:34:42.571Z,20.50
2022-10-29T18:39:45.478Z,20.40
2022-10-29T18:44:49.747Z,20.40
2022-10-29T18:49:52.816Z,20.40
2022-10-29T18:54:55.806Z,20.40
2022-10-29T19:00:00.243Z,20.30
2022-10-29T19:05:03.154Z,20.30
2022-10-29T19:10:06.805Z,20.00
2022-10-29T19:15:12.062Z,19.50
2022-10-29T19:20:15.076Z,19.70
2022-10-29T19:25:17.976Z,19.70
2022-10-29T19:30:22.206Z,19.70
2022-10-29T19:35:25.114Z,19.30
2022-10-29T19:40:28.020Z,19.30
2022-10-29T19:45:32.245Z,19.50
2022-10-29T19:50:35.392Z,19.40
2022-10-29T19:55:42.696Z,19.60
2022-10-29T20:00:47.260Z,19.70
2022-10-29T20:05:55.792Z,19.70
2022-10-29T20:11:02.058Z,19.70
2022-10-29T20:16:10.547Z,19.70
2022-10-29T20:21:14.393Z,19.70
2022-10-29T20:26:17.383Z,19.70
2022-10-29T20:31:31.682Z,19.70
2022-10-29T20:36:36.862Z,19.70
2022-10-29T20:41:39.889Z,19.80
2022-10-29T20:46:44.112Z,20.00
2022-10-29T20:51:48.055Z,20.00
2022-10-29T20:56:50.969Z,20.10
2022-10-29T21:01:55.374Z,20.20
2022-10-29T21:06:58.419Z,20.20
2022-10-29T21:12:01.311Z,20.00
2022-10-29T21:17:06.684Z,19.80
2022-10-29T21:22:09.663Z,19.50
2022-10-29T21:27:12.669Z,19.40
2022-10-29T21:32:17.267Z,19.40
2022-10-29T21:37:20.204Z,19.40
2022-10-29T21:42:24.242Z,19.50
2022-10-29T21:47:28.473Z,19.40
2022-10-29T21:52:32.087Z,19.50
2022-10-29T21:57:35.363Z,19.40
2022-10-29T22:03:04.077Z,19.20
2022-10-29T22:08:07.596Z,19.10
2022-10-29T22:13:13.551Z,19.20
2022-10-29T22:18:19.275Z,19.20
2022-10-29T22:23:22.203Z,19.00
2022-10-29T22:28:25.173Z,18.70
2022-10-29T22:33:29.872Z,18.30
2022-10-29T22:38:32.812Z,17.70
2022-10-29T22:43:36.283Z,17.70
2022-10-29T22:48:40.584Z,17.90
2022-10-29T22:53:45.044Z,18.20
2022-10-29T22:58:48.172Z,18.30
2022-10-29T23:03:52.924Z,18.20
2022-10-29T23:08:58.227Z,18.20
2022-10-29T23:14:02.301Z,18.30
2022-10-29T23:19:07.280Z,18.00
2022-10-29T23:24:10.711Z,17.40
2022-10-29T23:29:13.604Z,17.30
2022-10-29T23:34:17.957Z,17.40
2022-10-29T23:39:20.877Z,17.50
2022-10-29T23:44:23.762Z,17.80
2022-10-29T23:49:28.458Z,17.80
2022-10-29T23:54:31.352Z,17.70
2022-10-29T23:59:36.275Z,17.70
